Time;durP1;ratioP1;P1;durP2;ratioP2;P2;SDS_P1;SDS_P2;PMS_P1;PMS_P2;Temp;Humidity;BMP_temperature;BMP_pressure;BME280_temperature;BME280_humidity;BME280_pressure;Samples;Min_cycle;Max_cycle;Signal;HPM_P1;HPM_P2
2023/05/30 00:00:32;;;;;;;20.13;7.70;;;15.90;59.80;;;;;;5017533;28;20045;-85
2023/05/30 00:02:58;;;;;;;21.83;9.95;;;15.90;60.30;;;;;;4995768;28;20107;-85
2023/05/30 00:05:24;;;;;;;25.17;6.03;;;15.90;60.30;;;;;;5012723;28;20104;-84
2023/05/30 00:07:51;;;;;;;17.40;6.75;;;15.90;60.20;;;;;;5021677;28;20030;-84
2023/05/30 00:10:17;;;;;;;20.15;6.82;;;15.90;60.10;;;;;;5012794;28;20061;-84
2023/05/30 00:12:46;;;;;;;13.77;6.15;;;15.90;60.30;;;;;;5013590;28;20103;-83
2023/05/30 00:15:13;;;;;;;19.50;6.85;;;15.90;60.70;;;;;;5012191;28;20018;-84
2023/05/30 00:17:39;;;;;;;21.98;7.20;;;15.90;60.90;;;;;;5012669;28;20125;-84
2023/05/30 00:20:08;;;;;;;16.95;6.40;;;15.90;61.10;;;;;;5011938;28;20121;-85
2023/05/30 00:22:37;;;;;;;12.85;5.65;;;15.90;61.00;;;;;;5014390;28;20022;-85
2023/05/30 00:25:04;;;;;;;15.95;5.40;;;15.90;60.90;;;;;;5015592;28;20076;-84
2023/05/30 00:27:30;;;;;;;14.27;6.03;;;15.90;60.60;;;;;;5016071;28;20018;-84
2023/05/30 00:29:56;;;;;;;11.10;5.57;;;15.90;60.60;;;;;;4998291;28;20041;-84
2023/05/30 00:32:22;;;;;;;18.73;5.80;;;15.90;60.60;;;;;;4997846;28;20414;-84
2023/05/30 00:34:47;;;;;;;13.80;5.30;;;15.90;61.10;;;;;;5015849;28;20034;-84
2023/05/30 00:37:13;;;;;;;14.10;5.95;;;15.90;61.30;;;;;;5009352;28;20017;-83
2023/05/30 00:39:39;;;;;;;23.83;5.82;;;15.80;61.50;;;;;;5020863;28;20124;-85
2023/05/30 00:42:06;;;;;;;20.27;5.97;;;15.80;61.40;;;;;;5013685;28;20027;-85
2023/05/30 00:44:32;;;;;;;16.85;5.70;;;15.80;62.00;;;;;;5016535;28;20010;-84
2023/05/30 00:46:59;;;;;;;17.00;6.45;;;15.80;62.10;;;;;;5024091;28;20038;-84
2023/05/30 00:49:26;;;;;;;13.65;5.38;;;15.80;62.30;;;;;;5026693;28;20028;-85
2023/05/30 00:51:52;;;;;;;14.13;6.50;;;15.80;62.30;;;;;;5023068;28;20032;-85
2023/05/30 00:54:19;;;;;;;16.67;6.13;;;15.80;61.60;;;;;;5030978;28;20054;-86
2023/05/30 00:56:47;;;;;;;15.02;6.20;;;15.90;61.90;;;;;;5020745;28;20085;-83
2023/05/30 00:59:13;;;;;;;12.45;5.20;;;15.90;61.80;;;;;;5024534;28;20041;-86
2023/05/30 01:01:43;;;;;;;18.63;6.53;;;15.90;62.00;;;;;;5017323;28;20046;-86
2023/05/30 01:04:10;;;;;;;15.00;6.13;;;16.00;62.30;;;;;;5016456;28;20022;-86
2023/05/30 01:06:37;;;;;;;18.85;5.75;;;16.00;61.60;;;;;;5001383;28;20030;-85
2023/05/30 01:09:04;;;;;;;13.70;5.75;;;16.00;62.20;;;;;;5016125;28;20400;-85
2023/05/30 01:11:33;;;;;;;13.30;6.13;;;16.00;62.60;;;;;;4997933;28;20018;-85
2023/05/30 01:14:20;;;;;;;21.75;6.60;;;16.00;62.90;;;;;;5018506;28;20026;-86
2023/05/30 01:17:01;;;;;;;21.15;6.10;;;16.00;62.40;;;;;;4999585;28;20022;-86
2023/05/30 01:19:50;;;;;;;15.15;6.45;;;16.00;62.30;;;;;;5023425;28;20045;-85
2023/05/30 01:22:41;;;;;;;17.10;5.80;;;16.10;62.30;;;;;;5019363;28;20064;-85
2023/05/30 01:25:32;;;;;;;13.88;5.82;;;16.10;62.20;;;;;;5023301;28;20083;-86
2023/05/30 01:28:12;;;;;;;14.95;5.82;;;16.10;62.20;;;;;;5040003;28;20049;-87
2023/05/30 01:30:53;;;;;;;17.42;6.05;;;16.10;62.20;;;;;;5035892;28;20124;-86
2023/05/30 01:33:20;;;;;;;12.32;5.40;;;16.10;62.40;;;;;;5020246;28;20029;-87
2023/05/30 01:35:48;;;;;;;14.20;5.43;;;16.10;62.50;;;;;;5027450;28;20021;-86
2023/05/30 01:38:15;;;;;;;15.25;5.53;;;16.10;61.90;;;;;;5014070;28;20027;-87
2023/05/30 01:40:55;;;;;;;13.65;5.25;;;16.20;62.70;;;;;;5003856;28;20056;-87
2023/05/30 01:43:42;;;;;;;11.10;5.60;;;16.20;62.40;;;;;;5002299;28;20022;-86
2023/05/30 01:46:32;;;;;;;11.30;5.45;;;16.20;62.40;;;;;;5029764;28;20418;-87
2023/05/30 01:49:17;;;;;;;16.83;6.05;;;16.30;62.40;;;;;;5029402;28;20030;-86
2023/05/30 01:51:52;;;;;;;12.45;5.78;;;16.20;62.30;;;;;;5022049;28;20041;-87
2023/05/30 01:54:20;;;;;;;16.25;5.28;;;16.30;61.90;;;;;;5011971;28;20045;-88
2023/05/30 01:56:52;;;;;;;10.95;4.68;;;16.30;61.40;;;;;;5029195;28;20052;-88
2023/05/30 01:59:19;;;;;;;12.52;4.88;;;16.30;60.50;;;;;;5017908;28;20087;-87
2023/05/30 02:01:47;;;;;;;13.25;5.63;;;16.30;60.00;;;;;;5028891;28;20065;-87
2023/05/30 02:04:13;;;;;;;13.32;6.40;;;16.30;60.70;;;;;;5008778;28;20025;-88
2023/05/30 02:06:39;;;;;;;13.80;5.32;;;16.30;60.80;;;;;;5006049;28;20030;-89
2023/05/30 02:09:06;;;;;;;18.23;6.45;;;16.30;61.50;;;;;;5020626;28;20088;-88
2023/05/30 02:11:31;;;;;;;18.83;6.22;;;16.30;60.70;;;;;;5017937;28;20084;-87
2023/05/30 02:13:57;;;;;;;17.05;7.25;;;16.30;60.80;;;;;;5002080;28;20491;-89
2023/05/30 02:16:24;;;;;;;18.10;6.05;;;16.30;61.10;;;;;;5028531;28;20022;-88
2023/05/30 02:18:52;;;;;;;12.25;6.05;;;16.30;61.10;;;;;;5016901;28;20442;-86
2023/05/30 02:21:18;;;;;;;17.48;5.88;;;16.30;61.80;;;;;;5002637;28;20025;-86
2023/05/30 02:23:44;;;;;;;14.38;6.95;;;16.20;62.20;;;;;;5004629;28;20030;-87
2023/05/30 02:26:10;;;;;;;15.30;5.88;;;16.20;62.50;;;;;;5028700;28;20552;-88
2023/05/30 02:28:36;;;;;;;13.40;6.95;;;16.20;61.40;;;;;;5014928;28;20108;-86
2023/05/30 02:31:03;;;;;;;10.90;5.88;;;16.20;61.30;;;;;;5017211;28;20060;-87
2023/05/30 02:33:29;;;;;;;17.10;6.30;;;16.20;61.60;;;;;;5025254;28;20026;-89
2023/05/30 02:35:55;;;;;;;17.52;5.90;;;16.30;62.80;;;;;;5020588;28;20030;-88
2023/05/30 02:38:22;;;;;;;14.20;6.25;;;16.30;62.70;;;;;;5029136;28;20093;-85
2023/05/30 02:40:48;;;;;;;18.40;6.18;;;16.30;61.90;;;;;;5041920;28;20094;-85
2023/05/30 02:43:14;;;;;;;21.58;7.07;;;16.30;62.80;;;;;;5006698;28;20102;-87
2023/05/30 02:45:40;;;;;;;14.38;5.97;;;16.30;63.70;;;;;;5015535;28;20023;-87
2023/05/30 02:48:07;;;;;;;18.80;6.30;;;16.30;64.10;;;;;;5021642;28;20061;-88
2023/05/30 02:50:33;;;;;;;19.10;6.65;;;16.30;64.10;;;;;;4993941;28;20019;-88
2023/05/30 02:52:59;;;;;;;14.60;7.40;;;16.40;64.10;;;;;;4976863;28;20542;-89
2023/05/30 02:55:26;;;;;;;18.48;7.32;;;16.40;64.30;;;;;;4985491;28;20071;-87
2023/05/30 02:57:52;;;;;;;18.90;7.35;;;16.40;62.90;;;;;;4976436;28;20069;-89
2023/05/30 03:00:19;;;;;;;27.88;7.38;;;16.40;62.90;;;;;;4977641;28;20089;-88
2023/05/30 03:02:47;;;;;;;18.98;7.15;;;16.40;63.80;;;;;;4997823;28;20089;-89
2023/05/30 03:05:13;;;;;;;20.45;7.32;;;16.50;64.60;;;;;;4986361;28;20116;-88
2023/05/30 03:07:39;;;;;;;18.52;7.75;;;16.50;63.10;;;;;;4995093;28;20050;-87
2023/05/30 03:10:06;;;;;;;21.07;7.47;;;16.60;63.70;;;;;;4980659;28;20097;-88
2023/05/30 03:12:34;;;;;;;28.55;8.27;;;16.70;64.20;;;;;;4999740;28;20058;-87
2023/05/30 03:15:04;;;;;;;31.08;8.55;;;16.80;64.30;;;;;;4999500;28;20037;-87
2023/05/30 03:17:30;;;;;;;29.10;8.55;;;16.90;64.50;;;;;;5013779;28;20100;-87
2023/05/30 03:19:56;;;;;;;17.48;7.93;;;16.80;64.60;;;;;;5022506;28;20110;-87
2023/05/30 03:22:22;;;;;;;24.08;8.63;;;16.80;65.00;;;;;;5002905;28;20041;-88
2023/05/30 03:24:48;;;;;;;20.80;9.02;;;16.90;65.80;;;;;;5018589;28;20034;-87
2023/05/30 03:27:14;;;;;;;23.50;8.30;;;16.80;66.00;;;;;;5030735;28;20045;-84
2023/05/30 03:29:40;;;;;;;20.60;7.93;;;16.80;65.70;;;;;;5014873;28;20033;-87
2023/05/30 03:32:09;;;;;;;26.45;9.38;;;16.80;66.10;;;;;;4995742;28;20546;-87
2023/05/30 03:34:36;;;;;;;20.25;7.85;;;16.80;66.10;;;;;;5012160;28;20458;-86
2023/05/30 03:37:02;;;;;;;25.70;9.13;;;17.00;65.00;;;;;;5018059;28;20145;-86
2023/05/30 03:39:28;;;;;;;31.45;8.93;;;17.10;63.90;;;;;;5022009;28;20527;-88
2023/05/30 03:41:54;;;;;;;27.92;9.40;;;17.30;65.50;;;;;;5018802;28;20026;-88
2023/05/30 03:44:21;;;;;;;27.02;9.05;;;17.50;63.70;;;;;;5016406;28;20030;-87
2023/05/30 03:46:47;;;;;;;28.58;10.73;;;17.60;63.20;;;;;;5016103;28;20049;-86
2023/05/30 03:49:13;;;;;;;26.17;10.98;;;17.80;63.10;;;;;;5024920;28;20048;-88
2023/05/30 03:51:39;;;;;;;32.38;10.50;;;17.90;62.90;;;;;;5015745;28;20040;-87
2023/05/30 03:54:06;;;;;;;35.45;11.48;;;17.90;61.90;;;;;;5025865;28;20069;-89
2023/05/30 03:56:32;;;;;;;27.77;11.48;;;18.10;62.80;;;;;;5027372;28;20094;-89
2023/05/30 03:58:59;;;;;;;35.05;10.68;;;18.20;63.40;;;;;;5034223;28;20022;-87
2023/05/30 04:01:25;;;;;;;36.40;10.48;;;18.40;61.50;;;;;;5023078;28;20434;-89
2023/05/30 04:03:50;;;;;;;33.22;9.98;;;18.60;60.40;;;;;;5018895;28;20036;-88
2023/05/30 04:06:17;;;;;;;20.33;8.52;;;18.80;58.80;;;;;;5022241;28;20025;-88
2023/05/30 04:08:42;;;;;;;24.35;9.38;;;18.90;56.90;;;;;;5029129;28;20057;-89
2023/05/30 04:11:08;;;;;;;17.90;8.50;;;19.00;56.80;;;;;;5022422;28;20026;-90
2023/05/30 04:13:35;;;;;;;25.20;9.05;;;19.10;55.70;;;;;;5018632;28;20479;-87
2023/05/30 04:16:01;;;;;;;21.75;7.95;;;19.20;55.20;;;;;;5022752;28;20018;-88
2023/05/30 04:18:27;;;;;;;23.43;9.13;;;19.40;54.80;;;;;;5032860;28;20018;-86
2023/05/30 04:20:53;;;;;;;23.55;9.73;;;19.50;55.00;;;;;;5041295;28;20034;-84
2023/05/30 04:23:19;;;;;;;24.52;8.10;;;19.70;55.10;;;;;;5023342;28;20003;-86
2023/05/30 04:25:47;;;;;;;20.15;7.68;;;19.90;54.10;;;;;;5039969;28;20010;-86
2023/05/30 04:28:16;;;;;;;29.40;8.82;;;20.10;53.30;;;;;;5041882;28;20030;-87
2023/05/30 04:30:48;;;;;;;18.40;8.88;;;20.30;52.60;;;;;;5030124;28;20026;-88
2023/05/30 04:33:18;;;;;;;18.48;7.78;;;20.60;51.50;;;;;;5027349;28;20024;-89
2023/05/30 04:35:45;;;;;;;19.83;7.32;;;20.70;50.50;;;;;;5029438;28;20132;-90
2023/05/30 04:38:16;;;;;;;19.30;7.40;;;20.80;50.30;;;;;;5034700;28;20040;-89
2023/05/30 04:40:43;;;;;;;11.48;5.07;;;20.90;49.00;;;;;;5047373;28;20064;-90
2023/05/30 04:43:10;;;;;;;17.08;5.10;;;21.00;46.60;;;;;;5020845;28;20033;-89
2023/05/30 04:45:36;;;;;;;16.38;6.40;;;20.90;46.40;;;;;;5019561;28;20068;-89
2023/05/30 04:48:03;;;;;;;19.05;5.95;;;20.90;47.00;;;;;;5027735;28;20107;-89
2023/05/30 04:50:29;;;;;;;16.48;5.93;;;21.00;47.80;;;;;;5021478;28;20026;-88
2023/05/30 04:52:55;;;;;;;13.50;5.60;;;21.10;46.90;;;;;;5021359;28;20121;-89
2023/05/30 04:55:21;;;;;;;14.05;5.28;;;21.20;46.40;;;;;;5032698;28;20052;-90
2023/05/30 04:57:47;;;;;;;11.57;2.80;;;21.40;46.20;;;;;;5033988;28;20034;-93
2023/05/30 05:00:14;;;;;;;11.52;4.28;;;21.50;44.20;;;;;;5031384;28;20033;-90
2023/05/30 05:02:44;;;;;;;6.68;2.88;;;21.50;44.40;;;;;;5024804;28;20026;-89
2023/05/30 05:05:15;;;;;;;6.95;2.60;;;21.50;43.60;;;;;;5022999;28;20022;-92
2023/05/30 05:07:41;;;;;;;7.53;3.08;;;21.40;43.80;;;;;;5004352;28;20033;-93
2023/05/30 05:10:07;;;;;;;7.85;2.95;;;21.40;44.10;;;;;;5004058;28;20111;-90
2023/05/30 05:12:33;;;;;;;5.75;2.70;;;21.40;43.90;;;;;;5017567;28;20021;-88
2023/05/30 05:15:08;;;;;;;3.63;2.17;;;21.30;42.30;;;;;;5018063;28;20036;-88
2023/05/30 05:17:34;;;;;;;5.18;2.13;;;21.20;43.60;;;;;;5010530;28;20050;-90
2023/05/30 05:20:00;;;;;;;3.67;2.00;;;21.50;43.30;;;;;;5026028;28;20033;-89
2023/05/30 05:22:26;;;;;;;4.72;2.10;;;21.80;41.70;;;;;;4999980;28;20022;-90
2023/05/30 05:24:52;;;;;;;4.00;1.80;;;22.00;39.80;;;;;;5017282;28;20027;-90
2023/05/30 05:27:18;;;;;;;3.28;1.50;;;22.10;39.20;;;;;;5020102;28;20022;-91
2023/05/30 05:29:44;;;;;;;3.60;1.60;;;22.50;38.40;;;;;;5020237;28;20029;-92
2023/05/30 05:32:10;;;;;;;4.18;1.70;;;22.60;38.50;;;;;;5027176;28;20114;-91
2023/05/30 05:34:36;;;;;;;5.60;2.35;;;23.30;38.30;;;;;;5024626;28;20030;-89
2023/05/30 05:37:02;;;;;;;5.90;2.13;;;23.70;37.60;;;;;;5023341;28;20072;-90
2023/05/30 05:39:28;;;;;;;3.33;1.65;;;23.30;37.20;;;;;;5026135;28;20037;-86
2023/05/30 05:41:54;;;;;;;4.45;2.00;;;23.10;38.30;;;;;;5014174;28;20026;-87
2023/05/30 05:44:20;;;;;;;1.70;1.40;;;23.20;38.00;;;;;;4983311;28;20026;-85
2023/05/30 05:46:48;;;;;;;4.43;1.65;;;23.70;37.50;;;;;;4999138;28;20390;-85
2023/05/30 05:49:17;;;;;;;2.17;1.60;;;24.00;36.60;;;;;;4995969;28;20117;-84
2023/05/30 05:51:43;;;;;;;3.15;1.80;;;23.80;36.90;;;;;;5016902;28;20105;-84
2023/05/30 05:54:09;;;;;;;2.80;1.67;;;24.30;36.10;;;;;;5013501;28;20085;-83
2023/05/30 05:56:38;;;;;;;3.78;1.98;;;25.30;35.20;;;;;;5013484;28;20545;-82
2023/05/30 05:59:04;;;;;;;2.72;1.80;;;27.00;34.70;;;;;;5017453;28;20368;-83
2023/05/30 06:01:29;;;;;;;5.85;1.65;;;28.20;32.40;;;;;;5014828;28;20084;-82
2023/05/30 06:03:55;;;;;;;4.82;1.60;;;27.60;33.00;;;;;;5015626;28;20026;-82
2023/05/30 06:06:21;;;;;;;2.47;1.45;;;27.30;33.30;;;;;;5015251;28;20026;-84
2023/05/30 06:08:47;;;;;;;3.83;1.30;;;26.30;32.10;;;;;;5013620;28;20030;-84
2023/05/30 06:11:13;;;;;;;5.68;2.13;;;24.80;33.60;;;;;;5018180;28;20539;-84
2023/05/30 06:13:40;;;;;;;2.92;1.60;;;23.80;35.60;;;;;;5029246;28;20025;-84
2023/05/30 06:16:06;;;;;;;4.10;2.05;;;23.70;36.40;;;;;;5018724;28;20109;-83
2023/05/30 06:18:32;;;;;;;4.38;1.73;;;23.90;36.10;;;;;;5026124;28;20014;-84
2023/05/30 06:20:57;;;;;;;5.57;1.75;;;23.60;36.10;;;;;;5017705;28;20124;-83
2023/05/30 06:23:24;;;;;;;2.28;1.50;;;23.10;36.20;;;;;;5013500;28;20026;-82
2023/05/30 06:25:50;;;;;;;4.30;2.17;;;24.00;36.60;;;;;;5013995;28;20535;-83
2023/05/30 06:28:16;;;;;;;5.82;1.95;;;26.10;35.00;;;;;;5015621;28;20026;-85
2023/05/30 06:30:41;;;;;;;6.55;1.88;;;29.00;33.30;;;;;;5029261;28;20033;-83
2023/05/30 06:33:07;;;;;;;2.93;2.03;;;30.90;30.50;;;;;;5023066;28;20101;-82
2023/05/30 06:35:33;;;;;;;3.40;2.03;;;32.80;30.40;;;;;;5031598;28;20033;-85
2023/05/30 06:38:01;;;;;;;5.13;2.33;;;34.60;29.60;;;;;;5015179;28;20030;-85
2023/05/30 06:40:28;;;;;;;3.15;1.60;;;;;;;;;;5015705;28;20067;-84
2023/05/30 06:42:53;;;;;;;6.60;2.63;;;36.50;27.30;;;;;;5013861;28;20498;-84
2023/05/30 06:45:19;;;;;;;5.00;1.80;;;37.20;27.40;;;;;;5011866;28;20030;-85
2023/05/30 06:47:55;;;;;;;3.47;1.67;;;37.80;26.60;;;;;;5013544;28;20014;-84
2023/05/30 06:50:20;;;;;;;5.93;2.30;;;36.20;26.20;;;;;;5013970;28;20050;-84
2023/05/30 06:52:46;;;;;;;5.20;2.57;;;33.80;27.70;;;;;;5013297;28;20131;-84
2023/05/30 06:55:15;;;;;;;3.90;2.90;;;34.20;28.30;;;;;;5013937;28;20462;-84
2023/05/30 06:57:43;;;;;;;4.20;1.92;;;35.80;28.00;;;;;;5012362;28;20405;-84
2023/05/30 07:00:10;;;;;;;4.60;1.50;;;37.10;27.10;;;;;;4995388;28;20464;-83
2023/05/30 07:02:36;;;;;;;6.38;1.58;;;37.20;26.30;;;;;;5011591;28;20026;-85
2023/05/30 07:05:02;;;;;;;6.18;1.85;;;37.70;26.50;;;;;;4995354;28;20076;-82
2023/05/30 07:07:28;;;;;;;2.80;1.48;;;39.00;26.80;;;;;;5013039;28;20492;-84
2023/05/30 07:09:55;;;;;;;3.38;1.70;;;;;;;;;;5012458;28;20101;-82
2023/05/30 07:12:21;;;;;;;3.03;1.60;;;39.90;26.20;;;;;;5017512;28;20050;-83
2023/05/30 07:14:47;;;;;;;3.83;2.15;;;38.80;25.70;;;;;;5016751;28;20056;-83
2023/05/30 07:17:13;;;;;;;6.75;2.17;;;38.10;26.10;;;;;;5013167;28;20026;-83
2023/05/30 07:19:39;;;;;;;6.28;2.05;;;39.30;26.00;;;;;;5011469;28;20042;-83
2023/05/30 07:22:06;;;;;;;3.88;2.25;;;40.80;25.60;;;;;;5012717;28;20022;-83
2023/05/30 07:24:31;;;;;;;;;;;41.20;25.20;;;;;;5013810;28;20475;-83
2023/05/30 07:26:57;;;;;;;1.50;1.40;;;41.20;25.80;;;;;;4996262;28;19936;-82
2023/05/30 07:29:24;;;;;;;2.92;1.55;;;40.00;25.00;;;;;;5011054;28;20038;-81
2023/05/30 07:31:49;;;;;;;4.80;1.48;;;40.80;25.30;;;;;;4995705;28;20038;-83
2023/05/30 07:34:15;;;;;;;;;;;42.10;25.10;;;;;;5015609;28;20018;-83
2023/05/30 07:36:41;;;;;;;4.07;1.77;;;42.50;25.70;;;;;;5031001;28;19905;-84
2023/05/30 07:39:07;;;;;;;;;;;42.40;24.30;;;;;;5020731;28;20030;-82
2023/05/30 07:41:33;;;;;;;5.55;1.65;;;42.80;25.20;;;;;;4999175;28;20330;-85
2023/05/30 07:43:58;;;;;;;4.35;1.77;;;42.70;24.20;;;;;;5016414;28;20025;-83
2023/05/30 07:46:24;;;;;;;6.82;2.17;;;40.40;24.20;;;;;;5014950;28;20080;-83
2023/05/30 07:48:53;;;;;;;7.10;2.10;;;37.90;25.00;;;;;;5016449;28;20453;-81
2023/05/30 07:51:20;;;;;;;3.92;2.05;;;36.50;26.00;;;;;;5017860;28;20037;-82
2023/05/30 07:53:46;;;;;;;6.18;2.58;;;36.10;26.10;;;;;;5026865;28;20050;-83
2023/05/30 07:56:12;;;;;;;3.35;1.77;;;36.60;26.50;;;;;;5030888;28;20033;-84
2023/05/30 07:58:37;;;;;;;4.60;1.63;;;37.30;26.00;;;;;;5035454;28;20033;-81
2023/05/30 08:01:05;;;;;;;4.07;1.60;;;37.60;25.90;;;;;;5027740;28;20010;-83
2023/05/30 08:03:31;;;;;;;6.15;2.50;;;38.40;25.70;;;;;;5023057;28;20128;-84
2023/05/30 08:05:57;;;;;;;2.90;1.65;;;37.80;25.60;;;;;;5032522;28;20509;-83
2023/05/30 08:08:23;;;;;;;2.15;1.30;;;36.50;25.60;;;;;;5016261;28;20037;-84
2023/05/30 08:10:49;;;;;;;7.55;1.98;;;35.70;26.30;;;;;;5016969;28;20034;-83
2023/05/30 08:13:15;;;;;;;2.97;2.00;;;36.50;26.40;;;;;;5031111;28;20021;-83
2023/05/30 08:15:43;;;;;;;2.72;1.75;;;37.60;25.80;;;;;;5015485;28;20364;-84
2023/05/30 08:18:09;;;;;;;5.80;1.90;;;37.50;25.60;;;;;;5014958;28;20025;-85
2023/05/30 08:20:38;;;;;;;3.03;1.67;;;37.70;26.00;;;;;;5017064;28;20040;-83
2023/05/30 08:23:04;;;;;;;3.42;1.90;;;38.60;25.40;;;;;;5016882;28;20026;-83
2023/05/30 08:25:35;;;;;;;7.07;3.63;;;38.10;25.20;;;;;;5015073;28;20442;-83
2023/05/30 08:28:02;;;;;;;5.82;2.20;;;38.80;25.80;;;;;;5035232;28;20388;-83
2023/05/30 08:30:28;;;;;;;4.05;2.13;;;40.20;25.20;;;;;;5010245;28;20159;-85
2023/05/30 08:32:54;;;;;;;;;;;41.20;24.80;;;;;;5016149;28;20026;-82
2023/05/30 08:35:20;;;;;;;4.80;2.00;;;41.10;24.90;;;;;;5016432;28;19959;-84
2023/05/30 08:37:47;;;;;;;4.93;2.60;;;40.10;24.60;;;;;;5021332;28;20026;-84
2023/05/30 08:40:13;;;;;;;8.30;2.30;;;40.40;25.20;;;;;;5020806;28;20167;-83
2023/05/30 08:42:40;;;;;;;3.50;2.30;;;;;;;;;;5016153;28;20045;-84
2023/05/30 08:45:06;;;;;;;4.13;2.20;;;41.50;24.70;;;;;;5015554;28;20029;-85
2023/05/30 08:47:35;;;;;;;4.50;1.90;;;41.50;23.90;;;;;;5013511;28;20026;-85
2023/05/30 08:50:06;;;;;;;6.82;2.38;;;39.20;24.20;;;;;;5015208;28;20022;-83
2023/05/30 08:52:33;;;;;;;3.33;2.60;;;36.00;25.40;;;;;;5020354;28;20169;-85
2023/05/30 08:55:12;;;;;;;10.35;5.35;;;34.20;26.60;;;;;;5016868;28;20379;-85
2023/05/30 08:57:49;;;;;;;5.13;2.70;;;33.00;27.50;;;;;;5029617;28;20478;-84
2023/05/30 09:00:16;;;;;;;9.55;2.58;;;32.30;27.90;;;;;;5015795;28;20034;-85
2023/05/30 09:02:45;;;;;;;3.60;2.15;;;31.40;27.90;;;;;;5016231;28;20029;-82
2023/05/30 09:05:15;;;;;;;6.57;2.42;;;31.50;28.40;;;;;;5016475;28;20023;-84
2023/05/30 09:07:44;;;;;;;4.15;2.40;;;31.70;28.20;;;;;;5015045;28;20021;-85
2023/05/30 09:10:12;;;;;;;7.00;2.80;;;31.30;28.40;;;;;;5014132;28;20513;-83
2023/05/30 09:12:37;;;;;;;4.25;2.45;;;30.70;28.70;;;;;;5015520;28;20049;-83
2023/05/30 09:15:04;;;;;;;3.83;2.47;;;29.60;28.90;;;;;;5013428;28;20475;-84
2023/05/30 09:17:32;;;;;;;5.38;2.38;;;28.60;29.70;;;;;;5013202;28;20050;-84
2023/05/30 09:19:58;;;;;;;7.15;2.65;;;28.00;29.90;;;;;;5014578;28;20038;-82
2023/05/30 09:22:26;;;;;;;5.43;2.50;;;27.40;30.60;;;;;;4997998;28;20526;-83
2023/05/30 09:25:03;;;;;;;5.10;3.40;;;27.10;30.90;;;;;;4997834;28;20030;-85
2023/05/30 09:27:33;;;;;;;7.45;3.00;;;27.10;31.50;;;;;;5015122;28;20026;-84
2023/05/30 09:30:09;;;;;;;6.25;2.78;;;28.10;31.20;;;;;;5016050;28;20026;-83
2023/05/30 09:32:36;;;;;;;3.88;2.80;;;29.50;30.90;;;;;;5024625;28;20434;-84
2023/05/30 09:35:12;;;;;;;4.25;2.40;;;29.60;29.80;;;;;;4997067;28;20099;-85
2023/05/30 09:37:43;;;;;;;5.65;2.20;;;29.80;29.40;;;;;;5023013;28;20026;-82
2023/05/30 09:40:12;;;;;;;5.32;2.67;;;30.90;29.40;;;;;;5017969;28;20034;-84
2023/05/30 09:42:43;;;;;;;4.72;2.35;;;32.30;28.60;;;;;;5014804;28;20022;-83
2023/05/30 09:45:13;;;;;;;3.80;1.90;;;33.60;28.20;;;;;;4996371;28;20045;-83
2023/05/30 09:47:44;;;;;;;6.32;2.70;;;35.10;27.40;;;;;;5013925;28;20109;-82
2023/05/30 09:50:13;;;;;;;6.65;2.17;;;36.40;27.50;;;;;;5027286;28;20022;-83
2023/05/30 09:52:40;;;;;;;5.10;2.75;;;37.70;26.70;;;;;;5028115;28;20018;-84
2023/05/30 09:55:08;;;;;;;6.68;2.10;;;39.30;26.10;;;;;;5014294;28;20059;-83
2023/05/30 09:57:38;;;;;;;7.30;2.70;;;40.40;25.60;;;;;;5038947;28;20052;-83
2023/05/30 10:00:09;;;;;;;8.38;2.25;;;40.80;25.30;;;;;;5024345;28;20038;-84
2023/05/30 10:02:36;;;;;;;7.90;3.97;;;40.00;25.00;;;;;;5026896;28;20089;-83
2023/05/30 10:05:03;;;;;;;8.05;2.25;;;39.10;25.10;;;;;;5025754;28;20390;-85
2023/05/30 10:07:30;;;;;;;11.80;6.90;;;38.40;25.30;;;;;;5015425;28;20511;-82
2023/05/30 10:09:56;;;;;;;;;;;37.40;25.60;;;;;;5029084;28;20014;-85
2023/05/30 10:12:23;;;;;;;6.10;2.80;;;36.20;26.20;;;;;;5013807;28;19912;-85
2023/05/30 10:14:49;;;;;;;5.78;2.33;;;35.00;26.60;;;;;;5016275;28;20537;-83
2023/05/30 10:17:18;;;;;;;5.57;2.80;;;33.90;27.00;;;;;;5025503;28;20383;-84
2023/05/30 10:19:53;;;;;;;6.70;2.70;;;32.60;27.60;;;;;;5015041;28;20073;-83
2023/05/30 10:22:21;;;;;;;5.13;3.70;;;31.10;28.20;;;;;;5041036;28;20018;-84
2023/05/30 10:24:48;;;;;;;7.78;2.88;;;30.10;29.30;;;;;;5042384;28;20026;-85
2023/05/30 10:27:23;;;;;;;6.25;2.55;;;29.20;29.90;;;;;;5017321;28;20080;-85
2023/05/30 10:30:11;;;;;;;4.13;3.05;;;28.50;29.90;;;;;;5016361;28;20503;-85
2023/05/30 10:32:40;;;;;;;7.72;4.03;;;27.80;30.40;;;;;;5016992;28;20060;-84
2023/05/30 10:35:11;;;;;;;8.07;2.90;;;27.50;31.10;;;;;;5014506;28;20101;-84
2023/05/30 10:37:37;;;;;;;6.53;2.90;;;27.20;30.80;;;;;;5019750;28;20100;-83
2023/05/30 10:40:16;;;;;;;4.70;2.95;;;27.00;31.30;;;;;;5014521;28;20042;-83
2023/05/30 10:42:45;;;;;;;4.80;2.72;;;27.00;32.10;;;;;;5021725;28;20060;-84
2023/05/30 10:45:16;;;;;;;6.20;3.00;;;;;;;;;;5017858;28;20022;-85
2023/05/30 10:47:55;;;;;;;6.10;2.95;;;;;;;;;;5014300;28;20018;-86
2023/05/30 10:50:25;;;;;;;5.05;2.75;;;;;;;;;;5011636;28;20029;-85
2023/05/30 10:52:56;;;;;;;4.40;2.75;;;26.80;31.70;;;;;;5013726;28;20141;-85
2023/05/30 10:55:22;;;;;;;5.88;3.10;;;26.20;33.60;;;;;;5017089;28;20032;-85
2023/05/30 10:57:48;;;;;;;6.35;2.50;;;25.90;32.90;;;;;;5019882;28;20026;-86
2023/05/30 11:00:24;;;;;;;5.38;3.00;;;25.70;33.50;;;;;;5020595;28;20033;-85
2023/05/30 11:02:55;;;;;;;5.82;2.75;;;25.50;33.60;;;;;;5018412;28;20022;-84
2023/05/30 11:05:31;;;;;;;8.15;2.72;;;25.20;33.80;;;;;;5014995;28;20022;-84
2023/05/30 11:08:00;;;;;;;5.95;4.10;;;25.10;34.00;;;;;;5016016;28;20037;-85
2023/05/30 11:10:27;;;;;;;6.25;3.47;;;24.90;35.00;;;;;;5017340;28;20010;-86
2023/05/30 11:13:07;;;;;;;3.97;2.67;;;25.00;34.30;;;;;;5020588;28;20022;-85
2023/05/30 11:15:34;;;;;;;6.22;4.07;;;25.00;34.20;;;;;;5016731;28;20022;-86
2023/05/30 11:18:00;;;;;;;5.00;2.50;;;24.90;34.50;;;;;;5025338;28;20539;-87
2023/05/30 11:20:26;;;;;;;5.28;3.42;;;24.80;34.20;;;;;;5015360;28;20029;-84
2023/05/30 11:23:01;;;;;;;6.00;3.45;;;24.70;35.20;;;;;;5017634;28;20029;-86
2023/05/30 11:25:32;;;;;;;6.13;2.92;;;24.90;35.50;;;;;;5001036;28;20069;-86
2023/05/30 11:28:04;;;;;;;5.80;3.65;;;25.00;34.60;;;;;;5012334;28;20097;-84
2023/05/30 11:30:40;;;;;;;7.03;3.25;;;24.90;35.10;;;;;;5013592;28;20026;-86
2023/05/30 11:33:10;;;;;;;7.00;3.40;;;24.80;35.20;;;;;;5026288;28;20075;-83
2023/05/30 11:35:38;;;;;;;9.52;4.18;;;24.90;35.50;;;;;;5013695;28;20022;-85
2023/05/30 11:38:06;;;;;;;16.42;6.43;;;25.00;34.70;;;;;;5012908;28;20475;-87
2023/05/30 11:40:32;;;;;;;4.65;3.00;;;25.10;34.90;;;;;;5014582;28;20030;-85
2023/05/30 11:42:58;;;;;;;7.85;2.40;;;24.90;34.20;;;;;;5022912;28;20026;-84
2023/05/30 11:45:30;;;;;;;4.43;3.00;;;24.50;34.30;;;;;;5016720;28;20499;-86
2023/05/30 11:48:11;;;;;;;3.80;2.50;;;24.20;34.80;;;;;;5013466;28;20033;-82
2023/05/30 11:50:39;;;;;;;4.90;2.42;;;24.10;35.00;;;;;;5012670;28;20028;-83
2023/05/30 11:53:12;;;;;;;4.50;3.00;;;24.10;35.00;;;;;;5013591;28;20034;-84
2023/05/30 11:55:38;;;;;;;6.43;2.75;;;24.10;35.00;;;;;;5009656;28;20044;-83
2023/05/30 11:58:04;;;;;;;5.60;2.80;;;;;;;;;;5012729;28;20112;-82
2023/05/30 12:00:31;;;;;;;7.53;3.60;;;;;;;;;;5013861;28;20069;-83
2023/05/30 12:02:58;;;;;;;6.93;3.58;;;;;;;;;;5017040;28;20321;-82
2023/05/30 12:05:24;;;;;;;14.77;4.47;;;;;;;;;;5015304;28;20425;-83
2023/05/30 12:07:53;;;;;;;5.95;3.65;;;;;;;;;;5015855;28;20352;-83
2023/05/30 12:10:28;;;;;;;6.38;3.15;;;;;;;;;;5012924;28;20041;-83
2023/05/30 12:12:54;;;;;;;4.68;3.05;;;;;;;;;;5015320;28;20391;-83
2023/05/30 12:15:20;;;;;;;5.03;2.77;;;;;;;;;;5022406;28;20016;-84
2023/05/30 12:17:46;;;;;;;10.63;4.20;;;24.00;35.60;;;;;;5032618;28;20011;-83
2023/05/30 12:20:16;;;;;;;4.25;3.38;;;24.00;36.30;;;;;;5019625;28;20364;-85
2023/05/30 12:22:45;;;;;;;7.13;3.10;;;24.00;36.30;;;;;;5016318;28;20427;-83
2023/05/30 12:25:12;;;;;;;5.75;3.08;;;23.90;36.40;;;;;;5016094;28;20022;-83
2023/05/30 12:27:47;;;;;;;;;;;23.80;36.40;;;;;;5015705;28;20018;-85
2023/05/30 12:30:15;;;;;;;12.35;3.38;;;23.80;36.20;;;;;;5014408;28;20314;-83
2023/05/30 12:32:41;;;;;;;4.82;2.80;;;23.70;36.80;;;;;;4998281;28;20080;-86
2023/05/30 12:35:08;;;;;;;8.30;3.47;;;23.70;37.10;;;;;;4997804;28;20065;-84
2023/05/30 12:37:34;;;;;;;4.47;2.67;;;23.50;36.60;;;;;;5015399;28;20045;-83
2023/05/30 12:40:02;;;;;;;11.88;5.00;;;23.40;36.80;;;;;;5015701;28;20038;-84
2023/05/30 12:42:29;;;;;;;6.28;3.33;;;23.10;37.90;;;;;;5018377;28;20022;-85
2023/05/30 12:45:00;;;;;;;6.80;2.97;;;23.10;37.70;;;;;;5021293;28;20022;-81
2023/05/30 12:47:26;;;;;;;4.00;2.88;;;23.20;37.40;;;;;;5020096;28;20018;-83
2023/05/30 12:49:54;;;;;;;6.00;2.92;;;23.20;37.30;;;;;;5015880;28;20034;-83
2023/05/30 12:52:22;;;;;;;8.63;3.13;;;23.10;37.50;;;;;;5015806;28;20072;-85